sensor_id;sensor_type;location;lat;lon;timestamp;P1;durP1;ratioP1;P2;durP2;ratioP2
18973;SDS011;9621;48.690;9.466;2024-01-11T00:00:48;59.97;;;27.80;;
18973;SDS011;9621;48.690;9.466;2024-01-11T00:03:16;68.73;;;30.77;;
18973;SDS011;9621;48.690;9.466;2024-01-11T00:05:43;67.93;;;30.07;;
18973;SDS011;9621;48.690;9.466;2024-01-11T00:08:10;67.20;;;31.00;;
18973;SDS011;9621;48.690;9.466;2024-01-11T00:10:38;74.23;;;32.87;;
18973;SDS011;9621;48.690;9.466;2024-01-11T00:13:05;71.13;;;33.13;;
18973;SDS011;9621;48.690;9.466;2024-01-11T00:15:31;71.70;;;32.53;;
18973;SDS011;9621;48.690;9.466;2024-01-11T00:17:58;75.97;;;33.43;;
18973;SDS011;9621;48.690;9.466;2024-01-11T00:20:27;71.20;;;31.50;;
18973;SDS011;9621;48.690;9.466;2024-01-11T00:22:54;71.90;;;30.93;;
18973;SDS011;9621;48.690;9.466;2024-01-11T00:25:21;64.53;;;29.03;;
18973;SDS011;9621;48.690;9.466;2024-01-11T00:27:48;66.73;;;30.53;;
18973;SDS011;9621;48.690;9.466;2024-01-11T00:30:15;71.50;;;31.83;;
18973;SDS011;9621;48.690;9.466;2024-01-11T00:32:42;83.17;;;34.17;;
18973;SDS011;9621;48.690;9.466;2024-01-11T00:35:09;91.60;;;39.20;;
18973;SDS011;9621;48.690;9.466;2024-01-11T00:37:37;108.23;;;44.47;;
18973;SDS011;9621;48.690;9.466;2024-01-11T00:40:05;78.37;;;34.40;;
18973;SDS011;9621;48.690;9.466;2024-01-11T00:42:33;75.90;;;32.43;;
18973;SDS011;9621;48.690;9.466;2024-01-11T00:45:00;80.40;;;35.17;;
18973;SDS011;9621;48.690;9.466;2024-01-11T00:47:27;80.10;;;32.50;;
18973;SDS011;9621;48.690;9.466;2024-01-11T00:49:54;71.33;;;32.13;;
18973;SDS011;9621;48.690;9.466;2024-01-11T00:52:21;72.67;;;31.47;;
18973;SDS011;9621;48.690;9.466;2024-01-11T00:54:49;72.50;;;31.97;;
18973;SDS011;9621;48.690;9.466;2024-01-11T00:57:16;71.50;;;29.37;;
18973;SDS011;9621;48.690;9.466;2024-01-11T00:59:43;74.60;;;32.13;;
18973;SDS011;9621;48.690;9.466;2024-01-11T01:02:10;77.57;;;32.13;;
18973;SDS011;9621;48.690;9.466;2024-01-11T01:04:37;73.07;;;32.33;;
18973;SDS011;9621;48.690;9.466;2024-01-11T01:07:04;73.00;;;30.77;;
18973;SDS011;9621;48.690;9.466;2024-01-11T01:09:31;76.10;;;31.63;;
18973;SDS011;9621;48.690;9.466;2024-01-11T01:12:01;75.83;;;31.33;;
18973;SDS011;9621;48.690;9.466;2024-01-11T01:14:28;63.90;;;31.70;;
18973;SDS011;9621;48.690;9.466;2024-01-11T01:16:54;73.07;;;31.83;;
18973;SDS011;9621;48.690;9.466;2024-01-11T01:19:22;70.37;;;31.87;;
18973;SDS011;9621;48.690;9.466;2024-01-11T01:21:49;72.63;;;33.00;;
18973;SDS011;9621;48.690;9.466;2024-01-11T01:24:16;83.63;;;32.47;;
18973;SDS011;9621;48.690;9.466;2024-01-11T01:26:42;75.43;;;33.73;;
18973;SDS011;9621;48.690;9.466;2024-01-11T01:29:11;72.97;;;31.53;;
18973;SDS011;9621;48.690;9.466;2024-01-11T01:31:38;69.70;;;30.43;;
18973;SDS011;9621;48.690;9.466;2024-01-11T01:34:04;69.47;;;31.93;;
18973;SDS011;9621;48.690;9.466;2024-01-11T01:36:32;67.93;;;31.87;;
18973;SDS011;9621;48.690;9.466;2024-01-11T01:38:59;69.90;;;32.40;;
18973;SDS011;9621;48.690;9.466;2024-01-11T01:41:26;64.77;;;30.60;;
18973;SDS011;9621;48.690;9.466;2024-01-11T01:43:53;71.47;;;32.13;;
18973;SDS011;9621;48.690;9.466;2024-01-11T01:46:22;70.83;;;31.03;;
18973;SDS011;9621;48.690;9.466;2024-01-11T01:48:51;68.27;;;30.83;;
18973;SDS011;9621;48.690;9.466;2024-01-11T01:51:19;68.63;;;30.43;;
18973;SDS011;9621;48.690;9.466;2024-01-11T01:53:47;74.17;;;32.57;;
18973;SDS011;9621;48.690;9.466;2024-01-11T01:56:17;71.23;;;31.20;;
18973;SDS011;9621;48.690;9.466;2024-01-11T01:58:45;69.43;;;30.70;;
18973;SDS011;9621;48.690;9.466;2024-01-11T02:01:13;67.03;;;32.50;;
18973;SDS011;9621;48.690;9.466;2024-01-11T02:03:42;71.90;;;31.37;;
18973;SDS011;9621;48.690;9.466;2024-01-11T02:06:10;69.47;;;30.60;;
18973;SDS011;9621;48.690;9.466;2024-01-11T02:08:38;77.00;;;33.13;;
18973;SDS011;9621;48.690;9.466;2024-01-11T02:11:08;75.27;;;32.27;;
18973;SDS011;9621;48.690;9.466;2024-01-11T02:13:37;76.60;;;33.00;;
18973;SDS011;9621;48.690;9.466;2024-01-11T02:16:04;76.40;;;33.97;;
18973;SDS011;9621;48.690;9.466;2024-01-11T02:18:32;76.57;;;31.00;;
18973;SDS011;9621;48.690;9.466;2024-01-11T02:21:00;76.07;;;33.87;;
18973;SDS011;9621;48.690;9.466;2024-01-11T02:23:31;77.20;;;31.23;;
18973;SDS011;9621;48.690;9.466;2024-01-11T02:26:00;72.40;;;31.23;;
18973;SDS011;9621;48.690;9.466;2024-01-11T02:28:27;79.20;;;34.17;;
18973;SDS011;9621;48.690;9.466;2024-01-11T02:30:54;79.07;;;33.40;;
18973;SDS011;9621;48.690;9.466;2024-01-11T02:33:21;81.77;;;35.30;;
18973;SDS011;9621;48.690;9.466;2024-01-11T02:35:48;74.83;;;31.90;;
18973;SDS011;9621;48.690;9.466;2024-01-11T02:38:16;83.37;;;35.40;;
18973;SDS011;9621;48.690;9.466;2024-01-11T02:40:43;76.80;;;33.40;;
18973;SDS011;9621;48.690;9.466;2024-01-11T02:43:12;67.80;;;33.23;;
18973;SDS011;9621;48.690;9.466;2024-01-11T02:45:39;77.23;;;31.93;;
18973;SDS011;9621;48.690;9.466;2024-01-11T02:48:06;77.23;;;33.80;;
18973;SDS011;9621;48.690;9.466;2024-01-11T02:50:33;75.10;;;32.03;;
18973;SDS011;9621;48.690;9.466;2024-01-11T02:53:00;77.93;;;32.73;;
18973;SDS011;9621;48.690;9.466;2024-01-11T02:55:27;69.03;;;31.33;;
18973;SDS011;9621;48.690;9.466;2024-01-11T02:57:53;73.13;;;31.60;;
18973;SDS011;9621;48.690;9.466;2024-01-11T03:00:22;74.67;;;31.80;;
18973;SDS011;9621;48.690;9.466;2024-01-11T03:02:49;82.63;;;33.87;;
18973;SDS011;9621;48.690;9.466;2024-01-11T03:05:16;77.90;;;34.80;;
18973;SDS011;9621;48.690;9.466;2024-01-11T03:07:43;79.83;;;32.57;;
18973;SDS011;9621;48.690;9.466;2024-01-11T03:10:09;74.13;;;31.97;;
18973;SDS011;9621;48.690;9.466;2024-01-11T03:12:36;74.10;;;33.07;;
18973;SDS011;9621;48.690;9.466;2024-01-11T03:15:03;72.03;;;32.73;;
18973;SDS011;9621;48.690;9.466;2024-01-11T03:17:33;69.33;;;31.63;;
18973;SDS011;9621;48.690;9.466;2024-01-11T03:20:00;72.87;;;33.67;;
18973;SDS011;9621;48.690;9.466;2024-01-11T03:22:28;78.97;;;31.43;;
18973;SDS011;9621;48.690;9.466;2024-01-11T03:24:55;72.57;;;32.50;;
18973;SDS011;9621;48.690;9.466;2024-01-11T03:27:22;76.47;;;32.17;;
18973;SDS011;9621;48.690;9.466;2024-01-11T03:29:49;69.03;;;31.43;;
18973;SDS011;9621;48.690;9.466;2024-01-11T03:32:16;76.13;;;34.07;;
18973;SDS011;9621;48.690;9.466;2024-01-11T03:34:45;75.03;;;31.40;;
18973;SDS011;9621;48.690;9.466;2024-01-11T03:37:12;70.50;;;32.27;;
18973;SDS011;9621;48.690;9.466;2024-01-11T03:39:39;74.37;;;31.50;;
18973;SDS011;9621;48.690;9.466;2024-01-11T03:42:06;71.27;;;31.83;;
18973;SDS011;9621;48.690;9.466;2024-01-11T03:44:33;76.17;;;32.53;;
18973;SDS011;9621;48.690;9.466;2024-01-11T03:47:02;69.83;;;31.63;;
18973;SDS011;9621;48.690;9.466;2024-01-11T03:49:29;81.33;;;33.03;;
18973;SDS011;9621;48.690;9.466;2024-01-11T03:51:57;68.30;;;32.17;;
18973;SDS011;9621;48.690;9.466;2024-01-11T03:54:24;75.43;;;32.60;;
18973;SDS011;9621;48.690;9.466;2024-01-11T03:56:51;66.77;;;31.00;;
18973;SDS011;9621;48.690;9.466;2024-01-11T03:59:18;59.33;;;27.17;;
18973;SDS011;9621;48.690;9.466;2024-01-11T04:01:45;67.00;;;31.27;;
18973;SDS011;9621;48.690;9.466;2024-01-11T04:04:12;68.67;;;30.67;;
18973;SDS011;9621;48.690;9.466;2024-01-11T04:06:38;71.47;;;31.07;;
18973;SDS011;9621;48.690;9.466;2024-01-11T04:09:07;70.33;;;31.60;;
18973;SDS011;9621;48.690;9.466;2024-01-11T04:11:34;71.40;;;31.40;;
18973;SDS011;9621;48.690;9.466;2024-01-11T04:14:01;78.87;;;33.17;;
18973;SDS011;9621;48.690;9.466;2024-01-11T04:16:28;70.23;;;31.40;;
18973;SDS011;9621;48.690;9.466;2024-01-11T04:18:55;71.53;;;30.97;;
18973;SDS011;9621;48.690;9.466;2024-01-11T04:21:22;69.93;;;31.67;;
18973;SDS011;9621;48.690;9.466;2024-01-11T04:23:49;77.30;;;33.23;;
18973;SDS011;9621;48.690;9.466;2024-01-11T04:26:17;71.17;;;31.60;;
18973;SDS011;9621;48.690;9.466;2024-01-11T04:28:44;68.77;;;31.60;;
18973;SDS011;9621;48.690;9.466;2024-01-11T04:31:12;71.67;;;29.77;;
18973;SDS011;9621;48.690;9.466;2024-01-11T04:33:42;73.13;;;32.17;;
18973;SDS011;9621;48.690;9.466;2024-01-11T04:36:09;77.33;;;33.13;;
18973;SDS011;9621;48.690;9.466;2024-01-11T04:38:36;75.20;;;33.23;;
18973;SDS011;9621;48.690;9.466;2024-01-11T04:41:07;81.20;;;32.63;;
18973;SDS011;9621;48.690;9.466;2024-01-11T04:43:37;68.33;;;31.90;;
18973;SDS011;9621;48.690;9.466;2024-01-11T04:46:12;71.70;;;32.50;;
18973;SDS011;9621;48.690;9.466;2024-01-11T04:48:39;66.17;;;31.83;;
18973;SDS011;9621;48.690;9.466;2024-01-11T04:51:06;71.03;;;33.50;;
18973;SDS011;9621;48.690;9.466;2024-01-11T04:53:35;76.73;;;32.30;;
18973;SDS011;9621;48.690;9.466;2024-01-11T04:56:03;65.93;;;31.50;;
18973;SDS011;9621;48.690;9.466;2024-01-11T04:58:30;77.27;;;34.37;;
18973;SDS011;9621;48.690;9.466;2024-01-11T05:00:58;76.60;;;31.87;;
18973;SDS011;9621;48.690;9.466;2024-01-11T05:03:26;74.77;;;31.13;;
18973;SDS011;9621;48.690;9.466;2024-01-11T05:05:52;74.57;;;33.13;;
18973;SDS011;9621;48.690;9.466;2024-01-11T05:08:19;70.37;;;31.13;;
18973;SDS011;9621;48.690;9.466;2024-01-11T05:10:46;65.27;;;30.57;;
18973;SDS011;9621;48.690;9.466;2024-01-11T05:13:13;71.97;;;33.23;;
18973;SDS011;9621;48.690;9.466;2024-01-11T05:15:40;77.90;;;33.13;;
18973;SDS011;9621;48.690;9.466;2024-01-11T05:18:08;67.50;;;30.40;;
18973;SDS011;9621;48.690;9.466;2024-01-11T05:20:35;75.40;;;32.70;;
18973;SDS011;9621;48.690;9.466;2024-01-11T05:23:02;78.90;;;32.27;;
18973;SDS011;9621;48.690;9.466;2024-01-11T05:25:29;74.93;;;32.97;;
18973;SDS011;9621;48.690;9.466;2024-01-11T05:27:58;71.33;;;32.20;;
18973;SDS011;9621;48.690;9.466;2024-01-11T05:30:25;76.73;;;33.10;;
18973;SDS011;9621;48.690;9.466;2024-01-11T05:32:52;72.13;;;34.33;;
18973;SDS011;9621;48.690;9.466;2024-01-11T05:35:21;77.73;;;33.67;;
18973;SDS011;9621;48.690;9.466;2024-01-11T05:37:49;74.87;;;32.30;;
18973;SDS011;9621;48.690;9.466;2024-01-11T05:40:16;69.50;;;32.37;;
18973;SDS011;9621;48.690;9.466;2024-01-11T05:42:43;75.90;;;32.67;;
18973;SDS011;9621;48.690;9.466;2024-01-11T05:45:10;66.63;;;30.60;;
18973;SDS011;9621;48.690;9.466;2024-01-11T05:47:36;72.90;;;29.67;;
18973;SDS011;9621;48.690;9.466;2024-01-11T05:50:04;68.40;;;31.37;;
18973;SDS011;9621;48.690;9.466;2024-01-11T05:52:33;71.37;;;30.63;;
18973;SDS011;9621;48.690;9.466;2024-01-11T05:55:00;73.50;;;31.10;;
18973;SDS011;9621;48.690;9.466;2024-01-11T05:57:26;67.67;;;31.53;;
18973;SDS011;9621;48.690;9.466;2024-01-11T05:59:53;68.00;;;30.20;;
18973;SDS011;9621;48.690;9.466;2024-01-11T06:02:20;77.43;;;32.57;;
18973;SDS011;9621;48.690;9.466;2024-01-11T06:04:47;73.87;;;34.43;;
18973;SDS011;9621;48.690;9.466;2024-01-11T06:07:15;70.37;;;32.33;;
18973;SDS011;9621;48.690;9.466;2024-01-11T06:09:44;75.67;;;32.43;;
18973;SDS011;9621;48.690;9.466;2024-01-11T06:12:11;77.27;;;33.70;;
18973;SDS011;9621;48.690;9.466;2024-01-11T06:14:39;71.73;;;31.93;;
18973;SDS011;9621;48.690;9.466;2024-01-11T06:17:06;78.20;;;33.73;;
18973;SDS011;9621;48.690;9.466;2024-01-11T06:19:36;74.60;;;33.47;;
18973;SDS011;9621;48.690;9.466;2024-01-11T06:22:03;71.80;;;34.23;;
18973;SDS011;9621;48.690;9.466;2024-01-11T06:24:30;80.90;;;34.27;;
18973;SDS011;9621;48.690;9.466;2024-01-11T06:26:58;76.20;;;33.10;;
18973;SDS011;9621;48.690;9.466;2024-01-11T06:29:25;69.33;;;31.60;;
18973;SDS011;9621;48.690;9.466;2024-01-11T06:31:53;71.53;;;34.70;;
18973;SDS011;9621;48.690;9.466;2024-01-11T06:34:20;74.53;;;34.43;;
18973;SDS011;9621;48.690;9.466;2024-01-11T06:36:47;76.57;;;33.20;;
18973;SDS011;9621;48.690;9.466;2024-01-11T06:39:14;80.43;;;34.27;;
18973;SDS011;9621;48.690;9.466;2024-01-11T06:41:41;77.57;;;34.13;;
18973;SDS011;9621;48.690;9.466;2024-01-11T06:44:10;70.63;;;32.10;;
18973;SDS011;9621;48.690;9.466;2024-01-11T06:46:37;73.33;;;33.17;;
18973;SDS011;9621;48.690;9.466;2024-01-11T06:49:05;81.53;;;35.47;;
18973;SDS011;9621;48.690;9.466;2024-01-11T06:51:32;77.50;;;34.63;;
18973;SDS011;9621;48.690;9.466;2024-01-11T06:53:59;78.30;;;35.27;;
18973;SDS011;9621;48.690;9.466;2024-01-11T06:56:26;73.17;;;33.80;;
18973;SDS011;9621;48.690;9.466;2024-01-11T06:58:54;72.50;;;34.33;;
18973;SDS011;9621;48.690;9.466;2024-01-11T07:01:22;80.27;;;34.03;;
18973;SDS011;9621;48.690;9.466;2024-01-11T07:03:49;74.23;;;33.77;;
18973;SDS011;9621;48.690;9.466;2024-01-11T07:06:17;78.70;;;35.63;;
18973;SDS011;9621;48.690;9.466;2024-01-11T07:08:43;70.73;;;33.07;;
18973;SDS011;9621;48.690;9.466;2024-01-11T07:11:10;78.03;;;33.27;;
18973;SDS011;9621;48.690;9.466;2024-01-11T07:13:37;78.63;;;35.17;;
18973;SDS011;9621;48.690;9.466;2024-01-11T07:16:04;77.20;;;34.60;;
18973;SDS011;9621;48.690;9.466;2024-01-11T07:18:33;74.23;;;35.33;;
18973;SDS011;9621;48.690;9.466;2024-01-11T07:21:00;72.27;;;31.70;;
18973;SDS011;9621;48.690;9.466;2024-01-11T07:23:27;68.73;;;32.87;;
18973;SDS011;9621;48.690;9.466;2024-01-11T07:25:54;78.07;;;33.10;;
18973;SDS011;9621;48.690;9.466;2024-01-11T07:28:21;70.30;;;31.67;;
18973;SDS011;9621;48.690;9.466;2024-01-11T07:30:50;71.80;;;33.93;;
18973;SDS011;9621;48.690;9.466;2024-01-11T07:33:18;72.43;;;31.77;;
18973;SDS011;9621;48.690;9.466;2024-01-11T07:35:46;78.40;;;37.13;;
18973;SDS011;9621;48.690;9.466;2024-01-11T07:38:13;78.63;;;35.47;;
18973;SDS011;9621;48.690;9.466;2024-01-11T07:40:40;71.60;;;32.90;;
18973;SDS011;9621;48.690;9.466;2024-01-11T07:43:07;61.00;;;28.83;;
18973;SDS011;9621;48.690;9.466;2024-01-11T07:45:34;75.43;;;33.90;;
18973;SDS011;9621;48.690;9.466;2024-01-11T07:48:01;68.60;;;32.70;;
18973;SDS011;9621;48.690;9.466;2024-01-11T07:50:30;69.50;;;32.60;;
18973;SDS011;9621;48.690;9.466;2024-01-11T07:52:58;70.73;;;32.20;;
18973;SDS011;9621;48.690;9.466;2024-01-11T07:55:26;74.80;;;33.00;;
18973;SDS011;9621;48.690;9.466;2024-01-11T07:57:53;75.73;;;33.63;;
18973;SDS011;9621;48.690;9.466;2024-01-11T08:00:21;64.27;;;32.37;;
18973;SDS011;9621;48.690;9.466;2024-01-11T08:02:48;68.67;;;33.77;;
18973;SDS011;9621;48.690;9.466;2024-01-11T08:05:15;71.03;;;35.93;;
18973;SDS011;9621;48.690;9.466;2024-01-11T08:07:42;75.83;;;34.67;;
18973;SDS011;9621;48.690;9.466;2024-01-11T08:10:11;77.23;;;36.23;;
18973;SDS011;9621;48.690;9.466;2024-01-11T08:12:38;78.67;;;34.93;;
18973;SDS011;9621;48.690;9.466;2024-01-11T08:15:05;84.03;;;38.13;;
18973;SDS011;9621;48.690;9.466;2024-01-11T08:17:37;79.27;;;38.47;;
18973;SDS011;9621;48.690;9.466;2024-01-11T08:20:04;85.30;;;40.93;;
18973;SDS011;9621;48.690;9.466;2024-01-11T08:22:33;83.30;;;38.30;;
18973;SDS011;9621;48.690;9.466;2024-01-11T08:25:01;94.13;;;41.77;;
18973;SDS011;9621;48.690;9.466;2024-01-11T08:27:31;85.50;;;41.27;;
18973;SDS011;9621;48.690;9.466;2024-01-11T08:29:57;86.60;;;41.20;;
18973;SDS011;9621;48.690;9.466;2024-01-11T08:32:25;88.73;;;41.17;;
18973;SDS011;9621;48.690;9.466;2024-01-11T08:34:52;82.93;;;38.23;;
18973;SDS011;9621;48.690;9.466;2024-01-11T08:37:19;83.43;;;37.27;;
18973;SDS011;9621;48.690;9.466;2024-01-11T08:39:46;71.93;;;34.43;;
18973;SDS011;9621;48.690;9.466;2024-01-11T08:42:14;74.20;;;35.87;;
18973;SDS011;9621;48.690;9.466;2024-01-11T08:44:42;78.30;;;35.90;;
18973;SDS011;9621;48.690;9.466;2024-01-11T08:47:09;83.10;;;36.43;;
18973;SDS011;9621;48.690;9.466;2024-01-11T08:49:37;72.80;;;35.63;;
18973;SDS011;9621;48.690;9.466;2024-01-11T08:52:05;78.40;;;35.27;;
18973;SDS011;9621;48.690;9.466;2024-01-11T08:54:33;75.23;;;33.77;;
18973;SDS011;9621;48.690;9.466;2024-01-11T08:57:00;76.77;;;35.27;;
18973;SDS011;9621;48.690;9.466;2024-01-11T08:59:28;80.03;;;39.47;;
18973;SDS011;9621;48.690;9.466;2024-01-11T09:01:56;81.87;;;37.70;;
18973;SDS011;9621;48.690;9.466;2024-01-11T09:04:23;78.23;;;37.97;;
18973;SDS011;9621;48.690;9.466;2024-01-11T09:06:50;75.90;;;36.20;;
18973;SDS011;9621;48.690;9.466;2024-01-11T09:09:17;80.63;;;37.07;;
18973;SDS011;9621;48.690;9.466;2024-01-11T09:11:44;78.43;;;36.80;;
18973;SDS011;9621;48.690;9.466;2024-01-11T09:14:11;76.17;;;34.80;;
18973;SDS011;9621;48.690;9.466;2024-01-11T09:16:38;73.17;;;35.87;;
18973;SDS011;9621;48.690;9.466;2024-01-11T09:19:07;72.03;;;34.67;;
18973;SDS011;9621;48.690;9.466;2024-01-11T09:21:34;81.70;;;37.30;;
18973;SDS011;9621;48.690;9.466;2024-01-11T09:24:01;94.10;;;41.83;;
18973;SDS011;9621;48.690;9.466;2024-01-11T09:26:28;92.53;;;42.70;;
18973;SDS011;9621;48.690;9.466;2024-01-11T09:28:55;93.37;;;42.07;;
18973;SDS011;9621;48.690;9.466;2024-01-11T09:31:22;92.40;;;41.93;;
18973;SDS011;9621;48.690;9.466;2024-01-11T09:33:49;89.50;;;41.23;;
18973;SDS011;9621;48.690;9.466;2024-01-11T09:36:19;93.17;;;40.73;;
18973;SDS011;9621;48.690;9.466;2024-01-11T09:38:46;80.03;;;39.00;;
18973;SDS011;9621;48.690;9.466;2024-01-11T09:41:13;79.50;;;37.70;;
18973;SDS011;9621;48.690;9.466;2024-01-11T09:43:41;72.83;;;37.83;;
18973;SDS011;9621;48.690;9.466;2024-01-11T09:46:08;76.00;;;38.83;;
18973;SDS011;9621;48.690;9.466;2024-01-11T09:48:38;71.67;;;34.27;;
18973;SDS011;9621;48.690;9.466;2024-01-11T09:51:07;68.20;;;35.93;;
18973;SDS011;9621;48.690;9.466;2024-01-11T09:53:37;64.10;;;35.00;;
18973;SDS011;9621;48.690;9.466;2024-01-11T09:56:05;66.07;;;34.23;;
18973;SDS011;9621;48.690;9.466;2024-01-11T09:58:35;63.53;;;33.23;;
18973;SDS011;9621;48.690;9.466;2024-01-11T10:01:03;61.10;;;33.20;;
18973;SDS011;9621;48.690;9.466;2024-01-11T10:03:38;62.97;;;33.53;;
18973;SDS011;9621;48.690;9.466;2024-01-11T10:06:06;65.60;;;33.50;;
18973;SDS011;9621;48.690;9.466;2024-01-11T10:08:34;62.27;;;32.37;;
18973;SDS011;9621;48.690;9.466;2024-01-11T10:11:04;61.13;;;32.90;;
18973;SDS011;9621;48.690;9.466;2024-01-11T10:13:31;65.07;;;32.50;;
18973;SDS011;9621;48.690;9.466;2024-01-11T10:16:07;64.23;;;34.00;;
18973;SDS011;9621;48.690;9.466;2024-01-11T10:18:36;62.90;;;32.27;;
18973;SDS011;9621;48.690;9.466;2024-01-11T10:21:03;67.17;;;33.67;;
18973;SDS011;9621;48.690;9.466;2024-01-11T10:23:32;61.20;;;32.63;;
18973;SDS011;9621;48.690;9.466;2024-01-11T10:26:00;58.57;;;32.97;;
18973;SDS011;9621;48.690;9.466;2024-01-11T10:28:28;59.77;;;31.97;;
18973;SDS011;9621;48.690;9.466;2024-01-11T10:30:56;61.07;;;33.13;;
18973;SDS011;9621;48.690;9.466;2024-01-11T10:33:23;66.43;;;34.23;;
18973;SDS011;9621;48.690;9.466;2024-01-11T10:35:50;58.30;;;34.57;;
18973;SDS011;9621;48.690;9.466;2024-01-11T10:38:17;60.23;;;33.67;;
18973;SDS011;9621;48.690;9.466;2024-01-11T10:40:44;57.13;;;32.87;;
18973;SDS011;9621;48.690;9.466;2024-01-11T10:43:11;59.57;;;33.33;;
18973;SDS011;9621;48.690;9.466;2024-01-11T10:45:43;57.90;;;33.00;;
18973;SDS011;9621;48.690;9.466;2024-01-11T10:48:13;58.93;;;32.67;;
18973;SDS011;9621;48.690;9.466;2024-01-11T10:50:42;59.30;;;33.97;;
18973;SDS011;9621;48.690;9.466;2024-01-11T10:53:12;55.50;;;32.00;;
18973;SDS011;9621;48.690;9.466;2024-01-11T10:55:52;56.23;;;32.10;;
18973;SDS011;9621;48.690;9.466;2024-01-11T10:58:22;54.40;;;31.97;;
18973;SDS011;9621;48.690;9.466;2024-01-11T11:00:53;54.37;;;32.10;;
18973;SDS011;9621;48.690;9.466;2024-01-11T11:03:20;53.10;;;31.00;;
18973;SDS011;9621;48.690;9.466;2024-01-11T11:05:51;56.83;;;33.23;;
18973;SDS011;9621;48.690;9.466;2024-01-11T11:08:20;53.87;;;31.87;;
18973;SDS011;9621;48.690;9.466;2024-01-11T11:10:49;58.20;;;32.60;;
18973;SDS011;9621;48.690;9.466;2024-01-11T11:13:20;51.67;;;31.00;;
18973;SDS011;9621;48.690;9.466;2024-01-11T11:15:48;54.73;;;31.70;;
18973;SDS011;9621;48.690;9.466;2024-01-11T11:18:17;56.10;;;32.83;;
18973;SDS011;9621;48.690;9.466;2024-01-11T11:20:44;54.23;;;30.93;;
18973;SDS011;9621;48.690;9.466;2024-01-11T11:23:13;57.70;;;32.50;;
18973;SDS011;9621;48.690;9.466;2024-01-11T11:25:42;52.47;;;31.40;;
18973;SDS011;9621;48.690;9.466;2024-01-11T11:28:11;53.43;;;31.10;;
18973;SDS011;9621;48.690;9.466;2024-01-11T11:30:40;52.67;;;30.37;;
18973;SDS011;9621;48.690;9.466;2024-01-11T11:33:08;52.60;;;31.70;;
18973;SDS011;9621;48.690;9.466;2024-01-11T11:35:37;56.50;;;31.83;;
18973;SDS011;9621;48.690;9.466;2024-01-11T11:38:04;54.93;;;31.83;;
18973;SDS011;9621;48.690;9.466;2024-01-11T11:40:32;60.57;;;31.67;;
18973;SDS011;9621;48.690;9.466;2024-01-11T11:43:03;57.13;;;30.93;;
18973;SDS011;9621;48.690;9.466;2024-01-11T11:45:31;53.40;;;32.17;;
18973;SDS011;9621;48.690;9.466;2024-01-11T11:47:58;52.67;;;31.23;;
18973;SDS011;9621;48.690;9.466;2024-01-11T11:50:25;54.77;;;30.77;;
18973;SDS011;9621;48.690;9.466;2024-01-11T11:52:56;54.50;;;31.75;;
18973;SDS011;9621;48.690;9.466;2024-01-11T11:55:23;52.35;;;30.73;;
18973;SDS011;9621;48.690;9.466;2024-01-11T11:57:51;51.90;;;30.90;;
18973;SDS011;9621;48.690;9.466;2024-01-11T12:00:18;51.83;;;30.90;;
18973;SDS011;9621;48.690;9.466;2024-01-11T12:02:46;50.73;;;30.80;;
18973;SDS011;9621;48.690;9.466;2024-01-11T12:05:14;52.93;;;32.77;;
18973;SDS011;9621;48.690;9.466;2024-01-11T12:07:42;50.57;;;30.73;;
18973;SDS011;9621;48.690;9.466;2024-01-11T12:10:11;49.72;;;31.45;;
18973;SDS011;9621;48.690;9.466;2024-01-11T12:12:38;53.72;;;31.08;;
18973;SDS011;9621;48.690;9.466;2024-01-11T12:15:06;54.33;;;31.65;;
18973;SDS011;9621;48.690;9.466;2024-01-11T12:17:36;59.95;;;32.50;;
18973;SDS011;9621;48.690;9.466;2024-01-11T12:20:04;53.33;;;31.43;;
18973;SDS011;9621;48.690;9.466;2024-01-11T12:22:32;52.13;;;30.02;;
18973;SDS011;9621;48.690;9.466;2024-01-11T12:24:59;52.42;;;31.65;;
18973;SDS011;9621;48.690;9.466;2024-01-11T12:27:28;50.85;;;30.48;;
18973;SDS011;9621;48.690;9.466;2024-01-11T12:29:56;53.55;;;30.73;;
18973;SDS011;9621;48.690;9.466;2024-01-11T12:32:23;53.80;;;30.65;;
18973;SDS011;9621;48.690;9.466;2024-01-11T12:34:50;50.95;;;31.23;;
18973;SDS011;9621;48.690;9.466;2024-01-11T12:37:18;51.22;;;30.13;;
18973;SDS011;9621;48.690;9.466;2024-01-11T12:39:45;57.90;;;30.87;;
18973;SDS011;9621;48.690;9.466;2024-01-11T12:42:12;65.45;;;38.53;;
18973;SDS011;9621;48.690;9.466;2024-01-11T12:44:41;53.67;;;31.73;;
18973;SDS011;9621;48.690;9.466;2024-01-11T12:47:08;53.50;;;31.60;;
18973;SDS011;9621;48.690;9.466;2024-01-11T12:49:35;52.53;;;31.77;;
18973;SDS011;9621;48.690;9.466;2024-01-11T12:52:02;55.27;;;32.73;;
18973;SDS011;9621;48.690;9.466;2024-01-11T12:54:31;57.38;;;31.58;;
18973;SDS011;9621;48.690;9.466;2024-01-11T12:56:59;49.47;;;29.40;;
18973;SDS011;9621;48.690;9.466;2024-01-11T12:59:27;50.70;;;29.67;;
18973;SDS011;9621;48.690;9.466;2024-01-11T13:01:55;50.23;;;30.37;;
18973;SDS011;9621;48.690;9.466;2024-01-11T13:04:24;50.77;;;30.23;;
18973;SDS011;9621;48.690;9.466;2024-01-11T13:06:51;51.50;;;30.83;;
18973;SDS011;9621;48.690;9.466;2024-01-11T13:09:21;52.80;;;30.97;;
18973;SDS011;9621;48.690;9.466;2024-01-11T13:11:49;51.73;;;30.70;;
18973;SDS011;9621;48.690;9.466;2024-01-11T13:14:15;55.90;;;32.90;;
18973;SDS011;9621;48.690;9.466;2024-01-11T13:16:44;53.63;;;31.37;;
18973;SDS011;9621;48.690;9.466;2024-01-11T13:19:13;60.43;;;32.00;;
18973;SDS011;9621;48.690;9.466;2024-01-11T13:21:40;56.33;;;32.10;;
18973;SDS011;9621;48.690;9.466;2024-01-11T13:24:06;60.67;;;33.93;;
18973;SDS011;9621;48.690;9.466;2024-01-11T13:26:33;60.47;;;33.23;;
18973;SDS011;9621;48.690;9.466;2024-01-11T13:29:02;58.60;;;33.33;;
18973;SDS011;9621;48.690;9.466;2024-01-11T13:31:29;61.07;;;32.93;;
18973;SDS011;9621;48.690;9.466;2024-01-11T13:33:56;61.97;;;34.20;;
18973;SDS011;9621;48.690;9.466;2024-01-11T13:36:24;57.73;;;33.37;;
18973;SDS011;9621;48.690;9.466;2024-01-11T13:38:51;60.87;;;33.60;;
18973;SDS011;9621;48.690;9.466;2024-01-11T13:41:18;63.93;;;34.50;;
18973;SDS011;9621;48.690;9.466;2024-01-11T13:43:45;65.63;;;36.37;;
18973;SDS011;9621;48.690;9.466;2024-01-11T13:46:13;66.73;;;35.90;;
18973;SDS011;9621;48.690;9.466;2024-01-11T13:48:44;77.53;;;36.40;;
18973;SDS011;9621;48.690;9.466;2024-01-11T13:51:11;66.23;;;35.97;;
18973;SDS011;9621;48.690;9.466;2024-01-11T13:53:41;68.33;;;35.57;;
18973;SDS011;9621;48.690;9.466;2024-01-11T13:56:08;67.37;;;33.57;;
18973;SDS011;9621;48.690;9.466;2024-01-11T13:58:35;64.37;;;33.10;;
18973;SDS011;9621;48.690;9.466;2024-01-11T14:01:03;65.33;;;34.20;;
18973;SDS011;9621;48.690;9.466;2024-01-11T14:03:32;72.23;;;35.27;;
18973;SDS011;9621;48.690;9.466;2024-01-11T14:05:59;65.70;;;34.43;;
18973;SDS011;9621;48.690;9.466;2024-01-11T14:08:27;64.93;;;35.23;;
18973;SDS011;9621;48.690;9.466;2024-01-11T14:10:56;65.23;;;35.80;;
18973;SDS011;9621;48.690;9.466;2024-01-11T14:13:22;70.13;;;34.57;;
18973;SDS011;9621;48.690;9.466;2024-01-11T14:15:49;66.63;;;35.10;;
18973;SDS011;9621;48.690;9.466;2024-01-11T14:18:17;65.90;;;36.03;;
18973;SDS011;9621;48.690;9.466;2024-01-11T14:20:44;68.03;;;35.57;;
18973;SDS011;9621;48.690;9.466;2024-01-11T14:23:11;66.03;;;36.47;;
18973;SDS011;9621;48.690;9.466;2024-01-11T14:25:37;67.73;;;35.77;;
18973;SDS011;9621;48.690;9.466;2024-01-11T14:28:06;71.10;;;36.97;;
18973;SDS011;9621;48.690;9.466;2024-01-11T14:30:33;66.10;;;36.23;;
18973;SDS011;9621;48.690;9.466;2024-01-11T14:33:00;64.27;;;35.43;;
18973;SDS011;9621;48.690;9.466;2024-01-11T14:35:26;74.37;;;36.70;;